createdAt,value
2018-05-23T00:00:02.284Z,97.80
2018-05-23T00:02:29.833Z,97.90
2018-05-23T00:04:57.616Z,97.70
2018-05-23T00:07:25.186Z,97.80
2018-05-23T00:09:52.824Z,97.80
2018-05-23T00:12:20.440Z,97.60
2018-05-23T00:14:48.012Z,97.40
2018-05-23T00:17:16.321Z,97.50
2018-05-23T00:19:43.921Z,97.50
2018-05-23T00:22:11.504Z,97.70
2018-05-23T00:24:39.072Z,97.70
2018-05-23T00:27:07.396Z,97.20
2018-05-23T00:29:34.969Z,97.20
2018-05-23T00:32:02.635Z,97.10
2018-05-23T00:34:30.224Z,96.90
2018-05-23T00:36:57.845Z,97.40
2018-05-23T00:39:25.417Z,97.70
2018-05-23T00:41:52.933Z,97.80
2018-05-23T00:44:20.517Z,97.60
2018-05-23T00:46:48.082Z,97.50
2018-05-23T00:49:15.635Z,97.50
2018-05-23T00:51:43.480Z,97.40
2018-05-23T00:54:11.025Z,97.40
2018-05-23T00:56:38.578Z,97.70
2018-05-23T00:59:06.153Z,97.50
2018-05-23T01:01:33.758Z,97.70
2018-05-23T01:04:01.347Z,97.90
2018-05-23T01:06:28.895Z,97.60
2018-05-23T01:08:57.317Z,97.90
2018-05-23T01:11:24.876Z,97.70
2018-05-23T01:13:52.483Z,97.70
2018-05-23T01:16:20.072Z,97.90
2018-05-23T01:18:47.606Z,98.10
2018-05-23T01:21:15.164Z,98.00
2018-05-23T01:23:42.870Z,98.10
2018-05-23T01:26:10.598Z,97.90
2018-05-23T01:28:38.955Z,98.20
2018-05-23T01:31:07.357Z,98.20
2018-05-23T01:33:35.983Z,97.90
2018-05-23T01:36:03.582Z,97.90
2018-05-23T01:38:32.631Z,97.90
2018-05-23T01:41:00.195Z,97.90
2018-05-23T01:43:27.757Z,97.80
2018-05-23T01:45:55.314Z,97.90
2018-05-23T01:48:22.904Z,97.60
2018-05-23T01:50:50.476Z,97.60
2018-05-23T01:53:18.069Z,97.40
2018-05-23T01:55:45.687Z,97.50
2018-05-23T01:58:14.005Z,97.90
2018-05-23T02:00:41.612Z,97.90
2018-05-23T02:03:09.210Z,98.00
2018-05-23T02:05:37.526Z,98.50
2018-05-23T02:08:05.147Z,98.50
2018-05-23T02:10:33.465Z,98.30
2018-05-23T02:13:01.212Z,98.20
2018-05-23T02:15:28.756Z,98.50
2018-05-23T02:17:56.337Z,98.50
2018-05-23T02:20:23.900Z,98.30
2018-05-23T02:22:51.479Z,98.30
2018-05-23T02:25:19.162Z,97.40
2018-05-23T02:27:46.781Z,98.00
2018-05-23T02:30:14.341Z,98.20
2018-05-23T02:32:41.881Z,98.40
2018-05-23T02:35:09.440Z,98.40
2018-05-23T02:37:37.022Z,98.50
2018-05-23T02:40:04.597Z,98.40
2018-05-23T02:42:32.347Z,98.30
2018-05-23T02:44:59.913Z,98.30
2018-05-23T02:47:27.473Z,98.20
2018-05-23T02:49:55.251Z,98.30
2018-05-23T02:52:22.800Z,98.10
2018-05-23T02:54:50.475Z,98.30
2018-05-23T02:57:19.131Z,98.30
2018-05-23T02:59:46.710Z,98.30
2018-05-23T03:02:14.271Z,98.40
2018-05-23T03:04:41.816Z,98.70
2018-05-23T03:07:09.431Z,98.80
2018-05-23T03:09:37.763Z,98.80
2018-05-23T03:12:05.320Z,98.80
2018-05-23T03:14:32.872Z,99.10
2018-05-23T03:17:00.427Z,99.10
2018-05-23T03:19:27.989Z,99.10
2018-05-23T03:21:55.546Z,98.90
2018-05-23T03:24:23.141Z,98.90
2018-05-23T03:26:50.699Z,99.20
2018-05-23T03:29:18.297Z,99.00
2018-05-23T03:31:45.877Z,98.90
2018-05-23T03:34:13.432Z,99.10
2018-05-23T03:36:40.980Z,99.00
2018-05-23T03:39:08.754Z,99.20
2018-05-23T03:41:36.334Z,98.90
2018-05-23T03:44:03.873Z,98.70
2018-05-23T03:46:31.532Z,98.60
2018-05-23T03:48:59.203Z,98.60
2018-05-23T03:51:26.751Z,98.60
2018-05-23T03:53:54.363Z,98.70
2018-05-23T03:56:21.942Z,98.80
2018-05-23T03:58:49.512Z,98.70
2018-05-23T04:01:29.637Z,98.90
2018-05-23T04:04:08.882Z,98.90
2018-05-23T04:09:38.278Z,98.30
2018-05-23T04:12:05.776Z,99.00
2018-05-23T04:14:33.341Z,99.00
2018-05-23T04:17:00.894Z,99.00
2018-05-23T04:19:29.224Z,99.10
2018-05-23T04:21:56.797Z,99.10
2018-05-23T04:24:24.364Z,99.10
2018-05-23T04:26:51.921Z,99.10
2018-05-23T04:29:19.475Z,99.20
2018-05-23T04:31:47.190Z,99.10
2018-05-23T04:34:14.736Z,99.10
2018-05-23T04:36:42.566Z,99.10
2018-05-23T04:39:10.150Z,99.10
2018-05-23T04:41:37.888Z,98.90
2018-05-23T04:44:05.448Z,98.80
2018-05-23T04:46:33.000Z,98.50
2018-05-23T04:49:00.588Z,98.70
2018-05-23T04:51:28.906Z,98.20
2018-05-23T04:53:56.461Z,98.20
2018-05-23T04:56:24.027Z,98.30
2018-05-23T04:58:51.688Z,98.30
2018-05-23T05:01:19.291Z,98.30
2018-05-23T05:03:46.849Z,98.10
2018-05-23T05:06:14.406Z,97.80
2018-05-23T05:08:41.947Z,97.60
2018-05-23T05:11:09.517Z,97.50
2018-05-23T05:13:37.065Z,97.20
2018-05-23T05:16:04.652Z,97.40
2018-05-23T05:18:33.032Z,97.20
2018-05-23T05:21:01.566Z,97.00
2018-05-23T05:23:29.133Z,96.90
2018-05-23T05:25:56.718Z,97.00
2018-05-23T05:28:24.305Z,97.20
2018-05-23T05:30:52.640Z,96.80
2018-05-23T05:33:20.203Z,96.80
2018-05-23T05:35:48.030Z,96.80
2018-05-23T05:38:15.595Z,96.80
2018-05-23T05:40:43.153Z,96.80
2018-05-23T05:43:10.730Z,96.90
2018-05-23T05:45:38.279Z,96.70
2018-05-23T05:48:05.868Z,96.70
2018-05-23T05:50:33.434Z,97.00
2018-05-23T05:53:01.007Z,96.50
2018-05-23T05:55:28.757Z,95.70
2018-05-23T05:57:56.303Z,95.70
2018-05-23T06:00:23.866Z,95.70
2018-05-23T06:02:51.413Z,95.80
2018-05-23T06:05:19.193Z,95.30
2018-05-23T06:07:46.767Z,95.10
2018-05-23T06:10:14.362Z,95.10
2018-05-23T06:12:42.132Z,95.00
2018-05-23T06:15:09.726Z,95.20
2018-05-23T06:17:37.352Z,94.70
2018-05-23T06:20:04.896Z,94.40
2018-05-23T06:22:32.472Z,94.10
2018-05-23T06:25:00.083Z,94.00
2018-05-23T06:27:27.656Z,93.80
2018-05-23T06:29:56.007Z,93.90
2018-05-23T06:32:23.584Z,93.80
2018-05-23T06:34:51.888Z,94.00
2018-05-23T06:37:19.553Z,93.90
2018-05-23T06:39:47.276Z,93.70
2018-05-23T06:42:14.941Z,94.30
2018-05-23T06:44:42.550Z,93.90
2018-05-23T06:47:10.108Z,92.90
2018-05-23T06:49:37.682Z,92.60
2018-05-23T06:52:05.245Z,93.10
2018-05-23T06:54:32.823Z,92.30
2018-05-23T06:57:00.403Z,91.80
2018-05-23T06:59:27.952Z,91.50
2018-05-23T07:01:55.565Z,90.50
2018-05-23T07:04:23.132Z,88.10
2018-05-23T07:06:50.725Z,87.30
2018-05-23T07:09:18.263Z,89.10
2018-05-23T07:11:45.842Z,87.90
2018-05-23T07:14:13.407Z,85.80
2018-05-23T07:16:41.027Z,87.70
2018-05-23T07:19:08.793Z,86.80
2018-05-23T07:21:36.710Z,87.80
2018-05-23T07:24:04.282Z,87.90
2018-05-23T07:26:31.865Z,89.30
2018-05-23T07:28:59.489Z,90.10
2018-05-23T07:31:27.822Z,90.60
2018-05-23T07:33:55.436Z,90.60
2018-05-23T07:36:23.008Z,90.30
2018-05-23T07:38:51.494Z,92.20
2018-05-23T07:41:19.116Z,92.20
2018-05-23T07:43:46.732Z,92.70
2018-05-23T07:46:14.293Z,91.70
2018-05-23T07:48:41.895Z,91.00
2018-05-23T07:51:09.475Z,90.40
2018-05-23T07:53:37.797Z,90.10
2018-05-23T07:56:05.571Z,90.10
2018-05-23T07:58:33.156Z,88.60
2018-05-23T08:01:00.821Z,84.80
2018-05-23T08:03:28.387Z,86.10
2018-05-23T08:05:57.478Z,85.30
2018-05-23T08:08:25.060Z,85.30
2018-05-23T08:10:53.411Z,89.80
2018-05-23T08:13:20.987Z,89.90
2018-05-23T08:15:49.533Z,90.10
2018-05-23T08:18:17.094Z,89.80
2018-05-23T08:20:44.667Z,89.80
2018-05-23T08:23:12.237Z,90.80
2018-05-23T08:25:39.806Z,87.30
2018-05-23T08:28:07.441Z,87.60
2018-05-23T08:30:35.017Z,89.30
2018-05-23T08:33:02.610Z,89.60
2018-05-23T08:35:30.180Z,89.90
2018-05-23T08:37:57.843Z,90.60
2018-05-23T08:40:25.409Z,90.80
2018-05-23T08:42:52.986Z,89.50
2018-05-23T08:45:20.559Z,90.80
2018-05-23T08:47:48.125Z,91.30
2018-05-23T08:50:15.783Z,91.50
2018-05-23T08:52:43.355Z,92.60
2018-05-23T08:55:12.560Z,93.60
2018-05-23T08:57:40.139Z,93.60
2018-05-23T09:00:07.714Z,93.20
2018-05-23T09:02:35.291Z,93.90
2018-05-23T09:05:02.974Z,93.40
2018-05-23T09:07:30.473Z,94.00
2018-05-23T09:09:58.367Z,94.10
2018-05-23T09:12:26.213Z,93.50
2018-05-23T09:14:53.980Z,93.10
2018-05-23T09:17:21.655Z,92.30
2018-05-23T09:19:49.231Z,93.00
2018-05-23T09:22:16.821Z,93.80
2018-05-23T09:24:44.437Z,93.60
2018-05-23T09:27:12.024Z,93.60
2018-05-23T09:29:39.569Z,91.50
2018-05-23T09:32:07.226Z,90.90
2018-05-23T09:34:35.074Z,91.80
2018-05-23T09:37:02.627Z,92.00
2018-05-23T09:39:30.197Z,92.10
2018-05-23T09:41:57.761Z,92.40
2018-05-23T09:44:25.320Z,93.10
2018-05-23T09:46:52.913Z,93.00
2018-05-23T09:49:20.480Z,92.90
2018-05-23T09:51:48.923Z,91.70
2018-05-23T09:54:16.521Z,91.70
2018-05-23T09:56:45.625Z,90.60
2018-05-23T09:59:13.209Z,90.60
2018-05-23T10:01:41.578Z,88.70
2018-05-23T10:04:09.138Z,88.70
2018-05-23T10:06:37.471Z,88.60
2018-05-23T10:09:06.033Z,88.50
2018-05-23T10:11:33.592Z,85.60
2018-05-23T10:14:01.184Z,85.20
2018-05-23T10:16:28.766Z,86.00
2018-05-23T10:18:56.376Z,85.50
2018-05-23T10:21:23.977Z,81.40
2018-05-23T10:23:51.525Z,82.30
2018-05-23T10:26:19.140Z,81.70
2018-05-23T10:28:46.924Z,77.90
2018-05-23T10:31:14.561Z,79.90
2018-05-23T10:33:42.113Z,74.90
2018-05-23T10:36:09.717Z,75.70
2018-05-23T10:38:37.476Z,77.50
2018-05-23T10:41:05.119Z,76.90
2018-05-23T10:43:32.682Z,71.90
2018-05-23T10:46:00.241Z,69.70
2018-05-23T10:48:27.830Z,69.90
2018-05-23T10:50:55.420Z,66.90
2018-05-23T10:53:23.019Z,70.00
2018-05-23T10:55:50.608Z,65.60
2018-05-23T10:58:18.195Z,60.40
2018-05-23T11:00:45.789Z,59.30
2018-05-23T11:03:13.367Z,55.60
2018-05-23T11:05:41.124Z,54.30
2018-05-23T11:08:08.763Z,54.10
2018-05-23T11:10:37.169Z,52.10
2018-05-23T11:13:04.886Z,52.10
2018-05-23T11:15:32.497Z,52.80
2018-05-23T11:18:00.133Z,51.90
2018-05-23T11:20:28.143Z,49.80
2018-05-23T11:22:55.703Z,49.00
2018-05-23T11:25:23.302Z,48.80
2018-05-23T11:27:51.150Z,50.30
2018-05-23T11:30:18.724Z,50.00
2018-05-23T11:32:47.059Z,53.00
2018-05-23T11:35:14.941Z,53.10
2018-05-23T11:37:42.527Z,52.00
2018-05-23T11:40:10.891Z,52.50
2018-05-23T11:42:38.480Z,52.50
2018-05-23T11:45:06.053Z,53.30
2018-05-23T11:47:33.669Z,56.40
2018-05-23T11:50:01.304Z,54.80
2018-05-23T11:52:28.891Z,54.80
2018-05-23T11:54:56.484Z,53.00
2018-05-23T11:57:24.168Z,52.60
2018-05-23T11:59:51.823Z,51.90
2018-05-23T12:02:19.400Z,52.50
2018-05-23T12:04:46.976Z,51.40
2018-05-23T12:07:14.541Z,48.60
2018-05-23T12:09:42.121Z,47.60
2018-05-23T12:12:10.456Z,45.30
2018-05-23T12:14:38.023Z,45.20
2018-05-23T12:17:05.769Z,46.30
2018-05-23T12:19:33.340Z,48.30
2018-05-23T12:22:01.568Z,47.60
2018-05-23T12:24:29.176Z,48.70
2018-05-23T12:26:56.738Z,48.80
2018-05-23T12:29:24.317Z,48.80
2018-05-23T12:31:51.935Z,46.50
2018-05-23T12:34:20.267Z,45.10
2018-05-23T12:36:48.019Z,45.10
2018-05-23T12:39:15.587Z,47.50
2018-05-23T12:41:43.203Z,47.20
2018-05-23T12:44:10.890Z,45.40
2018-05-23T12:46:38.457Z,44.30
2018-05-23T12:49:06.078Z,45.10
2018-05-23T12:51:33.816Z,45.50
2018-05-23T12:54:02.190Z,40.50
2018-05-23T12:56:29.968Z,40.50
2018-05-23T12:58:57.548Z,39.60
2018-05-23T13:01:25.140Z,38.50
2018-05-23T13:03:52.717Z,40.20
2018-05-23T13:06:20.319Z,40.60
2018-05-23T13:08:47.929Z,41.00
2018-05-23T13:11:15.651Z,40.40
2018-05-23T13:13:43.242Z,39.60
2018-05-23T13:16:10.837Z,40.20
2018-05-23T13:18:39.194Z,40.10
2018-05-23T13:21:06.782Z,40.10
2018-05-23T13:23:35.138Z,41.40
2018-05-23T13:26:02.736Z,41.40
2018-05-23T13:28:30.343Z,40.40
2018-05-23T13:30:57.938Z,38.50
2018-05-23T13:33:26.446Z,37.00
2018-05-23T13:35:54.012Z,34.60
2018-05-23T13:38:21.614Z,34.30
2018-05-23T13:40:49.247Z,38.20
2018-05-23T13:43:17.044Z,35.90
2018-05-23T13:45:44.644Z,34.20
2018-05-23T13:48:12.236Z,34.70
2018-05-23T13:50:39.853Z,32.10
2018-05-23T13:53:07.511Z,30.80
2018-05-23T13:55:36.059Z,29.60
2018-05-23T13:58:03.609Z,29.40
2018-05-23T14:00:31.227Z,28.10
2018-05-23T14:02:58.813Z,26.20
2018-05-23T14:05:26.411Z,26.00
2018-05-23T14:07:54.769Z,29.40
2018-05-23T14:10:22.378Z,29.30
2018-05-23T14:12:49.933Z,31.60
2018-05-23T14:15:17.569Z,33.70
2018-05-23T14:17:45.152Z,34.80
2018-05-23T14:20:12.927Z,37.30
2018-05-23T14:22:40.532Z,38.70
2018-05-23T14:25:08.120Z,37.50
2018-05-23T14:27:36.444Z,36.30
2018-05-23T14:30:04.083Z,36.30
2018-05-23T14:32:31.731Z,36.20
2018-05-23T14:35:00.084Z,38.10
2018-05-23T14:37:27.852Z,38.10
2018-05-23T14:39:55.548Z,38.80
2018-05-23T14:42:23.182Z,39.10
2018-05-23T14:44:51.563Z,39.00
2018-05-23T14:47:19.923Z,37.10
2018-05-23T14:49:47.532Z,36.60
2018-05-23T14:52:15.182Z,34.70
2018-05-23T14:54:42.837Z,29.80
2018-05-23T14:57:10.622Z,29.00
2018-05-23T14:59:38.254Z,26.90
2018-05-23T15:02:05.994Z,27.80
2018-05-23T15:04:33.566Z,26.00
2018-05-23T15:07:01.404Z,26.60
2018-05-23T15:09:29.005Z,25.50
2018-05-23T15:11:57.396Z,27.00
2018-05-23T15:14:25.011Z,26.90
2018-05-23T15:16:52.569Z,26.70
2018-05-23T15:19:20.167Z,27.40
2018-05-23T15:21:47.998Z,27.00
2018-05-23T15:24:15.569Z,26.30
2018-05-23T15:26:43.608Z,25.80
2018-05-23T15:29:11.300Z,25.70
2018-05-23T15:31:38.924Z,25.20
2018-05-23T15:34:06.782Z,25.40
2018-05-23T15:36:34.511Z,25.10
2018-05-23T15:39:02.178Z,23.90
2018-05-23T15:41:29.871Z,23.20
2018-05-23T15:43:57.473Z,22.70
2018-05-23T15:46:25.093Z,24.20
2018-05-23T15:48:52.822Z,23.90
2018-05-23T15:51:21.162Z,23.80
2018-05-23T15:53:48.770Z,23.80
2018-05-23T15:56:16.329Z,24.50
2018-05-23T15:58:43.906Z,25.80
2018-05-23T16:01:11.487Z,25.10
2018-05-23T16:03:39.121Z,26.50
2018-05-23T16:06:06.726Z,27.90
2018-05-23T16:08:34.327Z,29.20
2018-05-23T16:11:01.973Z,30.80
2018-05-23T16:13:30.354Z,31.70
2018-05-23T16:15:58.044Z,31.70
2018-05-23T16:18:25.698Z,31.90
2018-05-23T16:20:53.367Z,30.80
2018-05-23T16:23:20.976Z,30.20
2018-05-23T16:25:48.564Z,31.40
2018-05-23T16:28:16.913Z,32.90
2018-05-23T16:30:44.496Z,32.30
2018-05-23T16:33:12.288Z,33.40
2018-05-23T16:35:40.700Z,32.80
2018-05-23T16:38:08.330Z,31.30
2018-05-23T16:40:35.933Z,31.00
2018-05-23T16:43:03.566Z,29.20
2018-05-23T16:45:31.174Z,30.10
2018-05-23T16:47:59.593Z,29.80
2018-05-23T16:50:27.461Z,29.80
2018-05-23T16:52:55.045Z,30.40
2018-05-23T16:55:22.635Z,30.70
2018-05-23T16:57:50.371Z,30.40
2018-05-23T17:00:17.966Z,31.40
2018-05-23T17:02:45.552Z,32.50
2018-05-23T17:05:13.234Z,33.60
2018-05-23T17:07:41.040Z,34.20
2018-05-23T17:10:08.640Z,35.50
2018-05-23T17:12:36.321Z,36.00
2018-05-23T17:15:03.994Z,35.90
2018-05-23T17:17:31.572Z,36.30
2018-05-23T17:19:59.358Z,36.90
2018-05-23T17:22:26.967Z,37.30
2018-05-23T17:24:54.563Z,37.40
2018-05-23T17:27:22.262Z,38.50
2018-05-23T17:29:49.864Z,39.20
2018-05-23T17:32:17.605Z,39.70
2018-05-23T17:34:45.176Z,39.30
2018-05-23T17:37:12.787Z,39.70
2018-05-23T17:39:41.210Z,39.20
2018-05-23T17:42:09.041Z,39.10
2018-05-23T17:44:36.645Z,39.10
2018-05-23T17:47:04.229Z,39.80
2018-05-23T17:49:31.820Z,39.40
2018-05-23T17:51:59.460Z,39.30
2018-05-23T17:54:27.421Z,40.10
2018-05-23T17:56:55.156Z,40.40
2018-05-23T17:59:22.798Z,40.90
2018-05-23T18:01:50.636Z,40.80
2018-05-23T18:04:19.008Z,41.10
2018-05-23T18:06:46.656Z,40.90
2018-05-23T18:09:14.269Z,40.60
2018-05-23T18:11:42.850Z,41.00
2018-05-23T18:14:10.517Z,41.70
2018-05-23T18:16:38.186Z,41.60
2018-05-23T18:19:05.835Z,40.60
2018-05-23T18:21:33.480Z,41.10
2018-05-23T18:24:01.063Z,41.60
2018-05-23T18:26:28.622Z,42.00
2018-05-23T18:28:56.225Z,41.60
2018-05-23T18:31:23.821Z,42.90
2018-05-23T18:33:51.418Z,42.80
2018-05-23T18:36:19.018Z,42.50
2018-05-23T18:38:46.701Z,43.00
2018-05-23T18:41:14.276Z,43.30
2018-05-23T18:43:41.897Z,43.40
2018-05-23T18:46:09.532Z,43.30
2018-05-23T18:48:37.139Z,43.40
2018-05-23T18:51:04.900Z,43.40
2018-05-23T18:53:33.302Z,44.80
2018-05-23T18:56:00.878Z,44.80
2018-05-23T18:58:28.688Z,44.50
2018-05-23T19:00:56.492Z,45.40
2018-05-23T19:03:24.181Z,45.50
2018-05-23T19:05:51.786Z,46.50
2018-05-23T19:08:19.535Z,46.40
2018-05-23T19:10:47.994Z,47.10
2018-05-23T19:13:15.602Z,46.80
2018-05-23T19:15:43.341Z,47.90
2018-05-23T19:18:11.749Z,48.60
2018-05-23T19:20:39.423Z,48.00
2018-05-23T19:23:07.026Z,48.40
2018-05-23T19:25:34.818Z,48.80
2018-05-23T19:28:03.198Z,49.30
2018-05-23T19:30:30.889Z,49.30
2018-05-23T19:32:58.594Z,50.20
2018-05-23T19:35:26.169Z,50.90
2018-05-23T19:37:53.810Z,51.40
2018-05-23T19:40:21.404Z,52.50
2018-05-23T19:42:49.802Z,53.60
2018-05-23T19:45:17.548Z,53.60
2018-05-23T19:47:45.136Z,54.70
2018-05-23T19:50:12.843Z,56.20
2018-05-23T19:52:40.551Z,57.90
2018-05-23T19:55:08.196Z,58.00
2018-05-23T19:57:36.581Z,60.10
2018-05-23T20:00:04.378Z,60.00
2018-05-23T20:02:32.334Z,63.60
2018-05-23T20:04:59.939Z,63.90
2018-05-23T20:07:27.614Z,64.90
2018-05-23T20:09:55.526Z,65.80
2018-05-23T20:12:23.142Z,67.40
2018-05-23T20:14:51.048Z,67.80
2018-05-23T20:17:18.721Z,66.90
2018-05-23T20:19:46.458Z,66.30
2018-05-23T20:22:14.824Z,72.40
2018-05-23T20:24:42.419Z,72.40
2018-05-23T20:27:10.899Z,72.80
2018-05-23T20:29:38.477Z,73.90
2018-05-23T20:32:06.126Z,73.60
2018-05-23T20:34:33.735Z,75.80
2018-05-23T20:37:01.322Z,76.30
2018-05-23T20:39:29.175Z,77.40
2018-05-23T20:41:57.568Z,78.40
2018-05-23T20:44:25.173Z,78.30
2018-05-23T20:46:52.823Z,78.70
2018-05-23T20:49:20.430Z,79.70
2018-05-23T20:51:48.859Z,80.80
2018-05-23T20:54:16.568Z,80.80
2018-05-23T20:56:44.971Z,82.20
2018-05-23T20:59:12.577Z,82.00
2018-05-23T21:01:40.176Z,82.30
2018-05-23T21:04:08.658Z,83.90
2018-05-23T21:06:38.810Z,84.40
2018-05-23T21:09:06.390Z,84.30
2018-05-23T21:11:34.085Z,84.90
2018-05-23T21:14:01.556Z,84.00
2018-05-23T21:16:29.934Z,86.10
2018-05-23T21:18:57.564Z,86.10
2018-05-23T21:21:25.224Z,85.30
2018-05-23T21:23:52.853Z,85.30
2018-05-23T21:26:20.504Z,86.00
2018-05-23T21:28:48.309Z,86.50
2018-05-23T21:31:16.114Z,86.40
2018-05-23T21:33:43.751Z,86.90
2018-05-23T21:36:13.698Z,87.40
2018-05-23T21:38:41.461Z,87.40
2018-05-23T21:41:09.067Z,87.10
2018-05-23T21:43:36.694Z,87.10
2018-05-23T21:46:04.262Z,87.30
2018-05-23T21:48:31.899Z,87.50
2018-05-23T21:50:59.488Z,88.10
2018-05-23T21:53:27.075Z,89.00
2018-05-23T21:55:54.695Z,89.50
2018-05-23T21:58:22.262Z,89.70
2018-05-23T22:00:49.841Z,89.60
2018-05-23T22:03:17.467Z,90.00
2018-05-23T22:05:45.063Z,90.00
2018-05-23T22:08:12.755Z,89.70
2018-05-23T22:10:40.291Z,90.00
2018-05-23T22:13:07.891Z,90.00
2018-05-23T22:15:36.400Z,90.60
2018-05-23T22:18:03.947Z,90.50
2018-05-23T22:20:31.764Z,90.30
2018-05-23T22:22:59.392Z,90.60
2018-05-23T22:25:26.996Z,90.70
2018-05-23T22:27:54.602Z,90.60
2018-05-23T22:30:22.225Z,90.50
2018-05-23T22:32:50.041Z,90.20
2018-05-23T22:35:17.609Z,90.50
2018-05-23T22:37:45.205Z,89.80
2018-05-23T22:40:12.907Z,90.20
2018-05-23T22:42:40.497Z,90.20
2018-05-23T22:45:08.065Z,89.40
2018-05-23T22:47:35.624Z,89.20
2018-05-23T22:50:03.214Z,89.00
2018-05-23T22:52:31.572Z,89.70
2018-05-23T22:54:59.106Z,89.70
2018-05-23T22:57:26.729Z,89.80
2018-05-23T22:59:54.321Z,90.20
2018-05-23T23:02:21.919Z,90.10
2018-05-23T23:04:49.481Z,90.10
2018-05-23T23:07:17.028Z,90.10
2018-05-23T23:09:44.643Z,90.10
2018-05-23T23:12:12.220Z,89.90
2018-05-23T23:14:39.786Z,89.60
2018-05-23T23:17:07.475Z,88.80
2018-05-23T23:19:35.099Z,87.90
2018-05-23T23:22:02.665Z,87.50
2018-05-23T23:24:30.241Z,86.40
2018-05-23T23:26:57.850Z,85.40
2018-05-23T23:29:25.429Z,86.80
2018-05-23T23:31:53.003Z,85.90
2018-05-23T23:34:20.659Z,85.90
2018-05-23T23:36:48.266Z,85.30
2018-05-23T23:39:16.064Z,84.80
2018-05-23T23:41:43.635Z,85.40
2018-05-23T23:44:11.389Z,84.10
2018-05-23T23:46:39.290Z,84.60
2018-05-23T23:49:06.859Z,85.00
2018-05-23T23:51:34.399Z,83.60
2018-05-23T23:54:02.005Z,82.30
2018-05-23T23:56:30.325Z,83.60
2018-05-23T23:58:57.902Z,83.50
